Time;durP1;ratioP1;P1;durP2;ratioP2;P2;SDS_P1;SDS_P2;PMS_P1;PMS_P2;Temp;Humidity;BMP_temperature;BMP_pressure;BME280_temperature;BME280_humidity;BME280_pressure;Samples;Min_cycle;Max_cycle;Signal;HPM_P1;HPM_P2
2022/12/02 00:02:00;;;;;;;0.20;0.20;;;;;;;;;;5011860;28;20037;-61
2022/12/02 00:04:28;;;;;;;0.40;0.40;;;;;;;;;;5012817;28;20050;-63
2022/12/02 00:06:57;;;;;;;0.85;0.55;;;;;;;;;;5014200;28;20042;-60
2022/12/02 00:09:30;;;;;;;0.20;0.20;;;;;;;;;;5013911;28;20129;-62
2022/12/02 00:11:56;;;;;;;2.15;1.52;;;;;;;;;;5014508;28;20025;-61
2022/12/02 00:14:28;;;;;;;0.38;0.38;;;;;;;;;;5012026;28;20037;-64
2022/12/02 00:16:54;;;;;;;0.60;0.40;;;;;;;;;;5014469;28;20413;-64
2022/12/02 00:19:22;;;;;;;0.30;0.30;;;;;;;;;;5012047;28;20046;-60
2022/12/02 00:21:49;;;;;;;0.65;0.30;;;;;;;;;;5016205;28;20034;-60
2022/12/02 00:24:16;;;;;;;1.17;0.82;;;;;;;;;;5013154;28;20123;-61
2022/12/02 00:26:43;;;;;;;0.73;0.45;;;;;;;;;;5032995;28;20064;-58
2022/12/02 00:29:09;;;;;;;0.85;0.82;;;;;;;;;;5032491;28;20157;-63
2022/12/02 00:31:36;;;;;;;0.28;0.28;;;;;;;;;;5033789;28;20168;-64
2022/12/02 00:34:03;;;;;;;0.20;0.20;;;;;;;;;;5031885;28;20043;-64
2022/12/02 00:36:30;;;;;;;0.47;0.40;;;;;;;;;;5050813;28;20142;-61
2022/12/02 00:38:57;;;;;;;0.30;0.30;;;;;;;;;;5049704;28;20444;-62
2022/12/02 00:41:24;;;;;;;0.40;0.30;;;;;;;;;;5031262;28;20065;-63
2022/12/02 00:46:37;;;;;;;0.30;0.30;;;;;;;;;;5032950;28;20075;-61
2022/12/02 00:49:05;;;;;;;0.70;0.65;;;;;;;;;;5032512;28;21736;-58
2022/12/02 00:51:32;;;;;;;0.95;0.68;;;;;;;;;;5031024;28;20041;-61
2022/12/02 00:53:59;;;;;;;0.32;0.32;;;;;;;;;;5034577;28;20033;-58
2022/12/02 00:56:25;;;;;;;0.65;0.63;;;;;;;;;;5032403;28;20057;-63
2022/12/02 00:58:52;;;;;;;1.30;0.77;;;;;;;;;;5032032;28;21692;-60
2022/12/02 01:01:19;;;;;;;0.85;0.43;;;;;;;;;;5033370;28;20588;-66
2022/12/02 01:03:45;;;;;;;0.30;0.30;;;;;;;;;;5040246;28;20441;-61
2022/12/02 01:06:12;;;;;;;0.30;0.30;;;;;;;;;;5032629;28;20120;-60
2022/12/02 01:08:38;;;;;;;0.65;0.50;;;;;;;;;;5028561;28;20545;-62
2022/12/02 01:11:05;;;;;;;1.35;0.77;;;;;;;;;;5031196;28;20033;-60
2022/12/02 01:13:32;;;;;;;0.80;0.63;;;;;;;;;;5033303;28;20175;-59
2022/12/02 01:15:59;;;;;;;0.30;0.30;;;;;;;;;;5031324;28;20060;-60
2022/12/02 01:18:25;;;;;;;0.95;0.50;;;;;;;;;;5034968;28;20061;-66
2022/12/02 01:20:52;;;;;;;0.47;0.40;;;;;;;;;;5033104;28;20040;-57
2022/12/02 01:23:19;;;;;;;0.38;0.30;;;;;;;;;;5033785;28;20040;-61
2022/12/02 01:25:47;;;;;;;0.30;0.30;;;;;;;;;;5033681;28;20040;-62
2022/12/02 01:28:14;;;;;;;1.02;0.40;;;;;;;;;;5032936;28;20442;-60
2022/12/02 01:30:40;;;;;;;2.50;0.95;;;;;;;;;;5032167;28;20040;-60
2022/12/02 01:33:07;;;;;;;0.30;0.30;;;;;;;;;;5049431;28;20086;-58
2022/12/02 01:35:34;;;;;;;0.82;0.82;;;;;;;;;;5030343;28;20045;-63
2022/12/02 01:38:00;;;;;;;1.02;0.98;;;;;;;;;;5048851;28;20052;-62
2022/12/02 01:40:29;;;;;;;0.93;0.85;;;;;;;;;;5033607;28;20037;-61
2022/12/02 01:42:55;;;;;;;1.98;1.67;;;;;;;;;;5046192;28;20052;-61
2022/12/02 01:45:22;;;;;;;0.50;0.50;;;;;;;;;;5032220;28;20049;-61
2022/12/02 01:47:49;;;;;;;1.70;1.35;;;;;;;;;;5034503;28;20045;-63
2022/12/02 01:50:16;;;;;;;1.75;1.27;;;;;;;;;;5033604;28;20060;-59
2022/12/02 01:52:43;;;;;;;0.30;0.30;;;;;;;;;;5037107;28;20037;-60
2022/12/02 01:55:14;;;;;;;1.27;1.15;;;;;;;;;;5034987;28;20183;-63
2022/12/02 01:57:41;;;;;;;0.43;0.25;;;;;;;;;;5036683;28;20081;-65
2022/12/02 02:00:28;;;;;;;0.40;0.40;;;;;;;;;;5050711;28;20056;-61
2022/12/02 02:02:55;;;;;;;0.73;0.50;;;;;;;;;;5032098;28;20051;-61
2022/12/02 02:05:26;;;;;;;0.43;0.40;;;;;;;;;;5031344;28;20129;-61
2022/12/02 02:07:54;;;;;;;1.60;0.82;;;;;;;;;;5033783;28;20457;-61
2022/12/02 02:10:41;;;;;;;0.77;0.70;;;;;;;;;;5009184;28;20125;-64
2022/12/02 02:13:08;;;;;;;2.45;2.05;;;;;;;;;;5010162;28;20844;-60
2022/12/02 02:15:37;;;;;;;0.30;0.30;;;;;;;;;;5009750;28;20128;-61
2022/12/02 02:18:03;;;;;;;0.45;0.30;;;;;;;;;;4992835;28;20034;-57
2022/12/02 02:20:30;;;;;;;0.82;0.82;;;;;;;;;;5000160;28;20037;-61
2022/12/02 02:23:06;;;;;;;0.32;0.30;;;;;;;;;;5010459;28;20142;-58
2022/12/02 02:25:33;;;;;;;0.30;0.30;;;;;;;;;;5009137;28;20056;-62
2022/12/02 02:28:01;;;;;;;0.50;0.50;;;;;;;;;;5009957;28;20037;-62
2022/12/02 02:30:28;;;;;;;0.68;0.40;;;;;;;;;;5009436;28;20061;-62
2022/12/02 02:32:55;;;;;;;0.40;0.30;;;;;;;;;;5009319;28;20144;-67
2022/12/02 02:35:22;;;;;;;0.47;0.30;;;;;;;;;;5007274;28;20045;-60
2022/12/02 02:37:50;;;;;;;0.45;0.30;;;;;;;;;;5010654;28;20041;-60
2022/12/02 02:40:17;;;;;;;1.30;0.93;;;;;;;;;;5010207;28;20528;-60
2022/12/02 02:42:45;;;;;;;0.52;0.32;;;;;;;;;;5025527;28;20511;-60
2022/12/02 02:45:12;;;;;;;0.45;0.40;;;;;;;;;;5030112;28;20444;-61
2022/12/02 02:47:39;;;;;;;0.75;0.40;;;;;;;;;;5031717;28;20535;-61
2022/12/02 02:50:06;;;;;;;0.45;0.40;;;;;;;;;;5031996;28;20072;-60
2022/12/02 02:52:33;;;;;;;0.68;0.65;;;;;;;;;;5030205;28;20552;-61
2022/12/02 02:55:00;;;;;;;0.60;0.32;;;;;;;;;;5029896;28;20126;-62
2022/12/02 02:57:26;;;;;;;2.50;1.23;;;;;;;;;;5031179;28;20415;-61
2022/12/02 02:59:55;;;;;;;0.30;0.30;;;;;;;;;;5035630;28;20092;-59
2022/12/02 03:02:22;;;;;;;0.30;0.28;;;;;;;;;;5035494;28;20059;-61
2022/12/02 03:04:49;;;;;;;1.27;1.17;;;;;;;;;;5037617;28;20565;-63
2022/12/02 03:07:16;;;;;;;1.38;0.77;;;;;;;;;;5035881;28;20442;-65
2022/12/02 03:09:43;;;;;;;2.33;0.85;;;;;;;;;;5036507;28;20236;-62
2022/12/02 03:12:09;;;;;;;5.13;1.20;;;;;;;;;;5034760;28;20041;-61
2022/12/02 03:14:36;;;;;;;0.60;0.60;;;;;;;;;;5032936;28;20543;-61
2022/12/02 03:17:03;;;;;;;0.30;0.30;;;;;;;;;;5033907;28;20041;-62
2022/12/02 03:19:31;;;;;;;5.07;1.20;;;;;;;;;;5035142;28;20389;-61
2022/12/02 03:21:58;;;;;;;0.65;0.52;;;;;;;;;;5033381;28;20274;-56
2022/12/02 03:24:24;;;;;;;0.47;0.30;;;;;;;;;;5049434;28;20398;-62
2022/12/02 03:26:51;;;;;;;2.67;1.52;;;;;;;;;;5034445;28;20484;-60
2022/12/02 03:29:19;;;;;;;0.75;0.52;;;;;;;;;;5036113;28;20051;-62
2022/12/02 03:31:46;;;;;;;0.57;0.43;;;;;;;;;;5026015;28;20041;-58
2022/12/02 03:34:12;;;;;;;0.63;0.25;;;;;;;;;;5035030;28;20041;-61
2022/12/02 03:36:39;;;;;;;0.63;0.60;;;;;;;;;;5033768;28;20045;-59
2022/12/02 03:39:06;;;;;;;0.40;0.40;;;;;;;;;;5035317;28;20509;-61
2022/12/02 03:41:33;;;;;;;0.25;0.25;;;;;;;;;;5032660;28;20036;-62
2022/12/02 03:43:59;;;;;;;0.85;0.40;;;;;;;;;;5033698;28;20034;-63
2022/12/02 03:46:27;;;;;;;1.17;0.63;;;;;;;;;;5031837;28;20060;-60
2022/12/02 03:48:54;;;;;;;1.17;0.60;;;;;;;;;;5033817;28;20051;-62
2022/12/02 03:51:21;;;;;;;0.50;0.40;;;;;;;;;;5034544;28;20340;-62
2022/12/02 03:53:47;;;;;;;0.47;0.30;;;;;;;;;;5034222;28;20047;-63
2022/12/02 03:56:14;;;;;;;0.40;0.30;;;;;;;;;;5033840;28;20251;-60
2022/12/02 03:58:48;;;;;;;0.40;0.40;;;;;;;;;;5034264;28;20037;-61
2022/12/02 04:01:15;;;;;;;0.43;0.30;;;;;;;;;;5031917;28;20087;-61
2022/12/02 04:03:42;;;;;;;0.43;0.30;;;;;;;;;;5034171;28;20494;-62
2022/12/02 04:06:09;;;;;;;2.17;0.80;;;;;;;;;;5035458;28;20033;-64
2022/12/02 04:08:35;;;;;;;0.63;0.40;;;;;;;;;;5032818;28;20037;-59
2022/12/02 04:11:02;;;;;;;1.88;1.08;;;;;;;;;;5032709;28;20044;-61
2022/12/02 04:13:28;;;;;;;0.30;0.30;;;;;;;;;;5033381;28;20517;-60
2022/12/02 04:15:55;;;;;;;0.47;0.30;;;;;;;;;;5034336;28;20058;-60
2022/12/02 04:18:22;;;;;;;0.45;0.40;;;;;;;;;;5031937;28;20390;-60
2022/12/02 04:20:48;;;;;;;6.43;2.15;;;;;;;;;;5024766;28;20056;-60
2022/12/02 04:23:15;;;;;;;0.28;0.28;;;;;;;;;;5033470;28;20551;-59
2022/12/02 04:25:42;;;;;;;0.63;0.45;;;;;;;;;;5033236;28;20055;-60
2022/12/02 04:28:09;;;;;;;0.75;0.75;;;;;;;;;;5033927;28;20991;-59
2022/12/02 04:30:35;;;;;;;1.15;0.82;;;;;;;;;;5033725;28;20045;-60
2022/12/02 04:33:02;;;;;;;0.38;0.30;;;;;;;;;;5033369;28;20075;-62
2022/12/02 04:35:29;;;;;;;0.35;0.30;;;;;;;;;;5032285;28;20765;-62
2022/12/02 04:37:56;;;;;;;1.77;0.80;;;;;;;;;;5034856;28;20029;-61
2022/12/02 04:40:22;;;;;;;0.60;0.50;;;;;;;;;;5031341;28;20129;-59
2022/12/02 04:42:49;;;;;;;0.40;0.40;;;;;;;;;;5031532;28;20033;-60
2022/12/02 04:45:16;;;;;;;0.88;0.30;;;;;;;;;;5033167;28;21134;-62
2022/12/02 04:47:42;;;;;;;0.63;0.63;;;;;;;;;;5033067;28;20397;-60
2022/12/02 04:50:09;;;;;;;0.50;0.50;;;;;;;;;;5031519;28;20033;-58
2022/12/02 04:52:36;;;;;;;0.80;0.70;;;;;;;;;;5047769;28;20029;-61
2022/12/02 04:55:03;;;;;;;0.38;0.30;;;;;;;;;;5031233;28;20041;-62
2022/12/02 04:57:29;;;;;;;0.47;0.40;;;;;;;;;;5033239;28;20041;-59
2022/12/02 04:59:56;;;;;;;0.60;0.45;;;;;;;;;;5032765;28;20510;-58
2022/12/02 05:02:23;;;;;;;0.73;0.40;;;;;;;;;;5032284;28;20046;-60
2022/12/02 05:04:49;;;;;;;0.52;0.35;;;;;;;;;;5032466;28;21057;-63
2022/12/02 05:07:16;;;;;;;1.05;0.95;;;;;;;;;;5034340;28;20098;-62
2022/12/02 05:09:43;;;;;;;0.30;0.28;;;;;;;;;;5033426;28;20037;-61
2022/12/02 05:12:09;;;;;;;0.50;0.30;;;;;;;;;;5031876;28;20079;-59
2022/12/02 05:14:36;;;;;;;0.30;0.30;;;;;;;;;;5031292;28;20024;-60
2022/12/02 05:17:02;;;;;;;0.63;0.30;;;;;;;;;;5033430;28;20049;-64
2022/12/02 05:19:29;;;;;;;1.98;1.48;;;;;;;;;;5031495;28;20063;-62
2022/12/02 05:21:56;;;;;;;0.35;0.30;;;;;;;;;;5031977;28;20048;-64
2022/12/02 05:24:22;;;;;;;0.55;0.55;;;;;;;;;;5030965;28;20474;-60
2022/12/02 05:26:49;;;;;;;0.30;0.30;;;;;;;;;;5032471;28;20048;-61
2022/12/02 05:29:15;;;;;;;0.70;0.47;;;;;;;;;;5032980;28;20490;-60
2022/12/02 05:31:42;;;;;;;0.50;0.50;;;;;;;;;;5031129;28;20040;-60
2022/12/02 05:34:08;;;;;;;0.20;0.20;;;;;;;;;;5032969;28;20203;-63
2022/12/02 05:36:35;;;;;;;1.15;1.08;;;;;;;;;;5032877;28;20052;-64
2022/12/02 05:39:02;;;;;;;0.68;0.40;;;;;;;;;;5031156;28;20102;-62
2022/12/02 05:41:28;;;;;;;0.45;0.30;;;;;;;;;;5032398;28;20449;-65
2022/12/02 05:44:23;;;;;;;0.88;0.65;;;;;;;;;;5041958;28;20055;-61
2022/12/02 05:46:50;;;;;;;1.80;1.70;;;;;;;;;;5041837;28;20045;-62
2022/12/02 05:49:19;;;;;;;0.85;0.75;;;;;;;;;;5041861;28;20036;-60
2022/12/02 05:51:46;;;;;;;0.63;0.30;;;;;;;;;;5042721;28;20044;-58
2022/12/02 05:54:19;;;;;;;0.25;0.20;;;;;;;;;;5044054;28;20043;-63
2022/12/02 05:56:45;;;;;;;;;;;;;;;;;;5041816;28;20057;-60
2022/12/02 05:59:14;;;;;;;0.30;0.30;;;;;;;;;;5042832;28;20504;-60
2022/12/02 06:01:41;;;;;;;0.38;0.30;;;;;;;;;;5040460;28;20090;-60
2022/12/02 06:04:34;;;;;;;0.30;0.30;;;;;;;;;;5040861;28;20091;-60
2022/12/02 06:07:02;;;;;;;0.53;0.30;;;;;;;;;;5038270;28;20041;-61
2022/12/02 06:09:30;;;;;;;0.30;0.30;;;;;;;;;;5024666;28;20391;-62
2022/12/02 06:11:57;;;;;;;0.52;0.40;;;;;;;;;;5042689;28;20033;-61
2022/12/02 06:14:30;;;;;;;3.03;1.65;;;;;;;;;;5037283;28;20045;-60
2022/12/02 06:17:00;;;;;;;2.08;1.73;;;;;;;;;;5012194;28;20503;-59
2022/12/02 06:19:46;;;;;;;1.80;1.65;;;;;;;;;;5009909;28;20033;-60
2022/12/02 06:22:22;;;;;;;0.30;0.30;;;;;;;;;;5012953;28;20169;-64
2022/12/02 06:24:49;;;;;;;0.32;0.30;;;;;;;;;;5009646;28;20049;-64
2022/12/02 06:27:17;;;;;;;0.40;0.40;;;;;;;;;;5012089;28;20041;-59
2022/12/02 06:29:49;;;;;;;0.47;0.30;;;;;;;;;;5010729;28;20383;-59
2022/12/02 06:32:19;;;;;;;1.10;0.70;;;;;;;;;;5012163;28;20088;-59
2022/12/02 06:34:45;;;;;;;3.30;1.75;;;;;;;;;;5014863;28;20139;-57
2022/12/02 06:37:14;;;;;;;0.38;0.30;;;;;;;;;;5017166;28;20131;-60
2022/12/02 06:39:40;;;;;;;0.32;0.32;;;;;;;;;;5015883;28;20124;-63
2022/12/02 06:42:15;;;;;;;0.47;0.40;;;;;;;;;;5016773;28;20045;-61
2022/12/02 06:47:32;;;;;;;0.55;0.50;;;;;;;;;;5015534;28;20347;-61
2022/12/02 06:50:19;;;;;;;0.50;0.40;;;;;;;;;;5016449;28;20047;-61
2022/12/02 06:52:46;;;;;;;2.40;1.65;;;;;;;;;;5015818;28;20084;-62
2022/12/02 06:55:26;;;;;;;0.60;0.60;;;;;;;;;;5014749;28;20049;-63
2022/12/02 06:57:53;;;;;;;0.55;0.55;;;;;;;;;;5014084;28;20485;-60
2022/12/02 07:00:20;;;;;;;0.98;0.85;;;;;;;;;;5014322;28;20060;-59
2022/12/02 07:02:47;;;;;;;0.22;0.22;;;;;;;;;;5018498;28;20453;-64
2022/12/02 07:05:20;;;;;;;1.83;1.33;;;;;;;;;;5037944;28;21407;-63
2022/12/02 07:07:47;;;;;;;6.03;0.75;;;;;;;;;;5021894;28;20046;-60
2022/12/02 07:10:18;;;;;;;0.68;0.45;;;;;;;;;;5014931;28;20038;-62
2022/12/02 07:12:46;;;;;;;0.20;0.20;;;;;;;;;;5015644;28;20069;-61
2022/12/02 07:15:39;;;;;;;0.30;0.30;;;;;;;;;;5023069;28;20366;-63
2022/12/02 07:18:14;;;;;;;0.40;0.30;;;;;;;;;;5025238;28;20636;-60
2022/12/02 07:20:42;;;;;;;0.30;0.30;;;;;;;;;;5035698;28;20048;-61
2022/12/02 07:23:15;;;;;;;0.35;0.30;;;;;;;;;;5036217;28;20123;-61
2022/12/02 07:25:45;;;;;;;0.30;0.30;;;;;;;;;;5032875;28;20049;-63
2022/12/02 07:28:22;;;;;;;1.08;1.00;;;;;;;;;;5036239;28;20092;-61
2022/12/02 07:30:55;;;;;;;0.45;0.45;;;;;;;;;;5014129;28;20045;-63
2022/12/02 07:33:22;;;;;;;0.30;0.30;;;;;;;;;;5029918;28;20029;-63
2022/12/02 07:35:48;;;;;;;0.20;0.20;;;;;;;;;;5014576;28;20487;-61
2022/12/02 07:38:15;;;;;;;0.20;0.20;;;;;;;;;;5014700;28;20075;-62
2022/12/02 07:40:45;;;;;;;0.30;0.30;;;;;;;;;;5016848;28;20049;-63
2022/12/02 07:43:11;;;;;;;1.08;0.80;;;;;;;;;;5014469;28;20876;-63
2022/12/02 07:45:38;;;;;;;0.65;0.65;;;;;;;;;;5014113;28;20049;-61
2022/12/02 07:48:05;;;;;;;0.22;0.20;;;;;;;;;;5020489;28;20041;-61
2022/12/02 07:50:31;;;;;;;1.35;1.10;;;;;;;;;;5028359;28;20428;-61
2022/12/02 07:52:58;;;;;;;0.35;0.30;;;;;;;;;;5015382;28;20048;-58
2022/12/02 07:55:25;;;;;;;0.45;0.43;;;;;;;;;;5012220;28;20041;-63
2022/12/02 07:57:51;;;;;;;0.30;0.30;;;;;;;;;;5014479;28;20445;-63
2022/12/02 08:00:18;;;;;;;0.90;0.68;;;;;;;;;;5027930;28;20049;-60
2022/12/02 08:02:46;;;;;;;0.30;0.30;;;;;;;;;;5011424;28;20122;-61
2022/12/02 08:05:13;;;;;;;1.33;1.05;;;;;;;;;;5015696;28;20465;-63
2022/12/02 08:07:41;;;;;;;0.35;0.30;;;;;;;;;;5013640;28;20460;-61
2022/12/02 08:10:08;;;;;;;1.13;0.60;;;;;;;;;;5014658;28;20049;-61
2022/12/02 08:12:34;;;;;;;0.20;0.20;;;;;;;;;;5018011;28;20504;-61
2022/12/02 08:15:01;;;;;;;2.53;1.70;;;;;;;;;;5014635;28;20626;-62
2022/12/02 08:17:28;;;;;;;0.30;0.30;;;;;;;;;;5014352;28;20049;-61
2022/12/02 08:19:54;;;;;;;0.45;0.45;;;;;;;;;;5014717;28;20037;-63
2022/12/02 08:22:21;;;;;;;0.63;0.63;;;;;;;;;;5015500;28;20413;-64
2022/12/02 08:24:47;;;;;;;0.43;0.43;;;;;;;;;;5011871;28;20107;-62
2022/12/02 08:27:14;;;;;;;0.43;0.32;;;;;;;;;;5014547;28;20049;-61
2022/12/02 08:29:40;;;;;;;0.25;0.25;;;;;;;;;;5013304;28;20434;-60
2022/12/02 08:32:07;;;;;;;0.68;0.40;;;;;;;;;;5012913;28;20065;-62
2022/12/02 08:34:34;;;;;;;1.88;1.25;;;;;;;;;;5012687;28;20072;-61
2022/12/02 08:37:00;;;;;;;0.32;0.30;;;;;;;;;;5023197;28;20052;-61
2022/12/02 08:39:27;;;;;;;0.60;0.30;;;;;;;;;;5018006;28;20107;-61
2022/12/02 08:41:54;;;;;;;0.50;0.50;;;;;;;;;;5014363;28;20064;-62
2022/12/02 08:44:20;;;;;;;0.40;0.40;;;;;;;;;;5014986;28;20107;-61
2022/12/02 08:46:47;;;;;;;0.40;0.40;;;;;;;;;;5015799;28;20128;-60
2022/12/02 08:49:13;;;;;;;0.60;0.40;;;;;;;;;;5011616;28;20034;-58
2022/12/02 08:51:40;;;;;;;0.75;0.68;;;;;;;;;;5012584;28;20590;-60
2022/12/02 08:54:06;;;;;;;0.28;0.28;;;;;;;;;;5011635;28;20041;-60
2022/12/02 08:56:33;;;;;;;0.45;0.45;;;;;;;;;;5008805;28;20045;-61
2022/12/02 08:59:00;;;;;;;1.48;0.95;;;;;;;;;;5010812;28;20033;-61
2022/12/02 09:01:27;;;;;;;0.40;0.30;;;;;;;;;;5012538;28;20038;-59
2022/12/02 09:03:53;;;;;;;0.22;0.22;;;;;;;;;;5010661;28;20823;-60
2022/12/02 09:06:20;;;;;;;0.38;0.38;;;;;;;;;;5012179;28;20103;-61
2022/12/02 09:08:47;;;;;;;0.52;0.35;;;;;;;;;;5011172;28;20958;-62
2022/12/02 09:11:13;;;;;;;1.02;0.85;;;;;;;;;;5009891;28;20056;-61
2022/12/02 09:13:40;;;;;;;1.00;0.43;;;;;;;;;;5008625;28;20108;-62
2022/12/02 09:16:07;;;;;;;0.32;0.30;;;;;;;;;;5012159;28;20407;-61
2022/12/02 09:18:33;;;;;;;1.00;0.82;;;;;;;;;;5012279;28;20060;-62
2022/12/02 09:21:00;;;;;;;0.77;0.50;;;;;;;;;;5012409;28;20058;-59
2022/12/02 09:26:08;;;;;;;0.98;0.75;;;;;;;;;;5052966;27;21692;-61
2022/12/02 09:28:35;;;;;;;0.32;0.32;;;;;;;;;;5027948;28;20592;-61
2022/12/02 09:31:01;;;;;;;0.55;0.30;;;;;;;;;;5053868;28;20036;-63
2022/12/02 09:33:28;;;;;;;1.08;0.65;;;;;;;;;;5036441;28;20129;-61
2022/12/02 09:35:54;;;;;;;0.30;0.30;;;;;;;;;;5032115;28;20045;-60
2022/12/02 09:38:21;;;;;;;0.20;0.20;;;;;;;;;;5029448;28;20060;-62
2022/12/02 09:40:48;;;;;;;0.70;0.70;;;;;;;;;;5029270;28;20049;-59
2022/12/02 09:43:14;;;;;;;0.75;0.40;;;;;;;;;;5030558;28;20826;-60
2022/12/02 09:45:41;;;;;;;0.30;0.30;;;;;;;;;;5028456;28;20045;-61
2022/12/02 09:48:08;;;;;;;1.15;0.95;;;;;;;;;;5030955;28;20087;-60
2022/12/02 09:50:35;;;;;;;1.25;0.77;;;;;;;;;;5029340;28;20124;-61
2022/12/02 09:53:06;;;;;;;0.30;0.30;;;;;;;;;;5031328;28;20382;-59
2022/12/02 09:55:33;;;;;;;1.15;1.05;;;;;;;;;;5042413;28;20025;-57
2022/12/02 09:58:19;;;;;;;2.65;0.93;;;;;;;;;;5032919;28;20047;-62
2022/12/02 10:00:46;;;;;;;0.38;0.38;;;;;;;;;;5040958;28;20033;-59
2022/12/02 10:03:15;;;;;;;0.57;0.40;;;;;;;;;;5037459;28;20029;-61
2022/12/02 10:05:41;;;;;;;1.08;0.90;;;;;;;;;;5034729;28;20051;-61
2022/12/02 10:08:12;;;;;;;2.00;1.35;;;;;;;;;;5036595;28;20044;-61
2022/12/02 10:10:40;;;;;;;0.80;0.40;;;;;;;;;;5034909;28;20055;-57
2022/12/02 10:13:07;;;;;;;1.25;1.15;;;;;;;;;;5036634;28;20060;-63
2022/12/02 10:15:33;;;;;;;0.63;0.40;;;;;;;;;;5034724;28;20056;-62
2022/12/02 10:18:02;;;;;;;0.43;0.32;;;;;;;;;;5036011;28;20041;-63
2022/12/02 10:20:29;;;;;;;1.67;1.05;;;;;;;;;;5045247;28;20481;-62
2022/12/02 10:23:05;;;;;;;0.30;0.30;;;;;;;;;;5054310;28;20049;-62
2022/12/02 10:25:32;;;;;;;0.35;0.35;;;;;;;;;;5033937;28;20080;-63
2022/12/02 10:27:58;;;;;;;0.45;0.43;;;;;;;;;;5035590;28;20041;-61
2022/12/02 10:30:26;;;;;;;1.33;1.23;;;;;;;;;;5034644;28;20477;-60
2022/12/02 10:33:02;;;;;;;1.27;0.75;;;;;;;;;;5036238;28;20525;-63
2022/12/02 10:35:42;;;;;;;1.17;0.63;;;;;;;;;;5033361;28;20611;-61
2022/12/02 10:38:27;;;;;;;0.63;0.40;;;;;;;;;;5022571;28;20049;-61
2022/12/02 10:40:53;;;;;;;0.38;0.30;;;;;;;;;;5021311;28;20418;-60
2022/12/02 10:43:20;;;;;;;1.95;1.02;;;;;;;;;;5021903;28;20034;-64
2022/12/02 10:45:59;;;;;;;0.77;0.57;;;;;;;;;;5023224;28;20052;-59
2022/12/02 10:48:25;;;;;;;0.47;0.30;;;;;;;;;;5021898;28;20049;-62
2022/12/02 10:50:52;;;;;;;0.50;0.50;;;;;;;;;;5021496;28;20167;-61
2022/12/02 10:53:18;;;;;;;0.60;0.50;;;;;;;;;;5020402;28;20049;-64
2022/12/02 10:55:46;;;;;;;0.55;0.40;;;;;;;;;;5021769;28;20041;-62
2022/12/02 10:58:14;;;;;;;1.55;0.98;;;;;;;;;;5021809;28;20041;-64
2022/12/02 11:00:41;;;;;;;0.43;0.30;;;;;;;;;;5022163;28;20103;-58
2022/12/02 11:03:08;;;;;;;1.60;1.35;;;;;;;;;;5020964;28;20057;-60
2022/12/02 11:05:36;;;;;;;2.47;1.83;;;;;;;;;;5020841;28;20088;-60
2022/12/02 11:08:05;;;;;;;0.35;0.30;;;;;;;;;;5022329;28;20032;-61
2022/12/02 11:10:36;;;;;;;2.42;1.30;;;;;;;;;;5022626;28;20110;-60
2022/12/02 11:13:12;;;;;;;0.30;0.30;;;;;;;;;;5039780;28;20073;-62
2022/12/02 11:15:40;;;;;;;0.73;0.30;;;;;;;;;;5020097;28;20037;-59
2022/12/02 11:18:22;;;;;;;0.80;0.50;;;;;;;;;;5024000;28;20045;-66
2022/12/02 11:21:09;;;;;;;6.30;1.35;;;;;;;;;;5010613;28;20136;-63
2022/12/02 11:23:36;;;;;;;0.38;0.32;;;;;;;;;;5009289;28;20045;-60
2022/12/02 11:26:07;;;;;;;0.43;0.35;;;;;;;;;;5005800;28;20053;-61
2022/12/02 11:28:46;;;;;;;3.63;2.70;;;;;;;;;;5017060;28;20052;-57
2022/12/02 11:31:13;;;;;;;1.02;0.82;;;;;;;;;;5018301;28;20099;-61
2022/12/02 11:33:48;;;;;;;1.00;0.52;;;;;;;;;;5015276;28;20587;-62
2022/12/02 11:36:17;;;;;;;1.58;1.30;;;;;;;;;;5016734;28;20793;-61
2022/12/02 11:38:53;;;;;;;1.40;1.02;;;;;;;;;;5019435;28;20041;-58
2022/12/02 11:41:19;;;;;;;5.00;2.10;;;;;;;;;;5019651;28;20561;-63
2022/12/02 11:43:46;;;;;;;1.40;0.88;;;;;;;;;;4997005;28;20526;-58
2022/12/02 11:46:20;;;;;;;3.00;2.42;;;;;;;;;;5007845;28;20644;-61
2022/12/02 11:48:47;;;;;;;4.05;3.65;;;;;;;;;;5015537;28;21333;-61
2022/12/02 11:51:29;;;;;;;3.55;2.90;;;;;;;;;;5016408;28;20037;-61
2022/12/02 11:53:56;;;;;;;3.70;2.58;;;;;;;;;;5006289;28;20049;-59
2022/12/02 11:56:26;;;;;;;5.40;2.22;;;;;;;;;;5004150;28;20030;-59
2022/12/02 11:58:53;;;;;;;0.75;0.40;;;;;;;;;;5007584;28;20047;-61
2022/12/02 12:01:20;;;;;;;1.25;0.80;;;;;;;;;;5016341;28;20034;-59
2022/12/02 12:03:48;;;;;;;0.93;0.50;;;;;;;;;;5016550;28;20120;-58
2022/12/02 12:06:15;;;;;;;0.60;0.60;;;;;;;;;;5027443;28;20521;-62
2022/12/02 12:08:47;;;;;;;1.50;0.88;;;;;;;;;;5013357;28;20042;-60
2022/12/02 12:11:29;;;;;;;0.68;0.40;;;;;;;;;;5018361;28;20045;-60
2022/12/02 12:14:08;;;;;;;0.30;0.30;;;;;;;;;;5023364;28;20121;-61
2022/12/02 12:17:14;;;;;;;1.73;0.77;;;;;;;;;;5028249;28;20053;-59
2022/12/02 12:19:40;;;;;;;1.08;0.65;;;;;;;;;;5028166;28;20081;-60
2022/12/02 12:22:24;;;;;;;0.55;0.47;;;;;;;;;;5026758;28;20053;-57
2022/12/02 12:24:50;;;;;;;0.30;0.30;;;;;;;;;;5026670;28;20464;-58
2022/12/02 12:27:34;;;;;;;0.55;0.30;;;;;;;;;;5027246;28;20041;-61
2022/12/02 12:30:00;;;;;;;;;;;;;;;;;;5028722;28;20044;-60
2022/12/02 12:32:27;;;;;;;1.08;0.60;;;;;;;;;;5025792;28;20020;-63
2022/12/02 12:34:53;;;;;;;0.60;0.60;;;;;;;;;;5023937;28;20110;-62
2022/12/02 12:37:20;;;;;;;0.57;0.38;;;;;;;;;;5019013;28;20124;-62
2022/12/02 12:39:46;;;;;;;1.55;0.85;;;;;;;;;;5028074;28;20615;-60
2022/12/02 12:42:13;;;;;;;0.85;0.68;;;;;;;;;;5027700;28;20043;-60
2022/12/02 12:44:40;;;;;;;0.65;0.40;;;;;;;;;;5026447;28;20060;-61
2022/12/02 12:47:06;;;;;;;0.32;0.28;;;;;;;;;;5025217;28;20072;-63
2022/12/02 12:49:34;;;;;;;0.35;0.35;;;;;;;;;;5020086;28;20127;-60
2022/12/02 12:52:01;;;;;;;1.52;1.25;;;;;;;;;;5017324;28;20045;-63
2022/12/02 12:54:27;;;;;;;4.05;2.40;;;;;;;;;;5012480;28;20136;-61
2022/12/02 12:56:54;;;;;;;1.50;1.20;;;;;;;;;;5014978;28;20049;-61
2022/12/02 12:59:21;;;;;;;0.70;0.70;;;;;;;;;;5043962;28;20087;-61
2022/12/02 13:01:47;;;;;;;1.52;1.23;;;;;;;;;;5034219;28;20065;-55
2022/12/02 13:04:14;;;;;;;2.15;1.95;;;;;;;;;;5016561;28;20386;-58
2022/12/02 13:07:00;;;;;;;1.50;0.88;;;;;;;;;;5017641;28;20113;-61
2022/12/02 13:09:27;;;;;;;0.30;0.30;;;;;;;;;;5020757;28;20806;-59
2022/12/02 13:11:54;;;;;;;2.40;2.13;;;;;;;;;;5006432;28;20553;-59
2022/12/02 13:14:20;;;;;;;9.68;4.85;;;;;;;;;;5014791;28;20266;-61
2022/12/02 13:16:47;;;;;;;2.60;2.15;;;;;;;;;;5016415;28;20044;-61
2022/12/02 13:19:14;;;;;;;3.95;2.15;;;;;;;;;;5019002;28;20045;-60
2022/12/02 13:21:40;;;;;;;1.15;0.93;;;;;;;;;;4990257;28;20623;-61
2022/12/02 13:24:07;;;;;;;2.67;2.38;;;;;;;;;;5015914;28;20045;-62
2022/12/02 13:26:34;;;;;;;3.85;2.97;;;;;;;;;;4996826;28;20057;-60
2022/12/02 13:29:01;;;;;;;4.70;2.40;;;;;;;;;;5018546;28;20962;-59
2022/12/02 13:31:27;;;;;;;4.00;2.97;;;;;;;;;;5017013;28;20133;-60
2022/12/02 13:33:54;;;;;;;4.25;3.85;;;;;;;;;;5015357;28;20163;-60
2022/12/02 13:36:20;;;;;;;7.95;4.82;;;;;;;;;;5021367;28;20418;-63
2022/12/02 13:39:10;;;;;;;1.25;1.15;;;;;;;;;;5057520;28;20044;-60
2022/12/02 13:41:37;;;;;;;2.90;1.75;;;;;;;;;;5042469;28;20040;-62
2022/12/02 13:44:04;;;;;;;1.83;1.42;;;;;;;;;;5053072;28;20037;-62
2022/12/02 13:46:31;;;;;;;0.88;0.65;;;;;;;;;;5046645;28;20122;-59
2022/12/02 13:48:58;;;;;;;0.47;0.30;;;;;;;;;;5032450;28;20078;-61
2022/12/02 13:51:25;;;;;;;4.60;3.35;;;;;;;;;;5068550;28;20231;-61
2022/12/02 13:53:51;;;;;;;2.40;1.38;;;;;;;;;;5034399;28;20098;-61
2022/12/02 13:56:38;;;;;;;1.75;0.88;;;;;;;;;;5028334;28;20057;-61
2022/12/02 13:59:04;;;;;;;2.50;2.15;;;;;;;;;;5030515;28;20045;-62
2022/12/02 14:01:31;;;;;;;7.57;5.50;;;;;;;;;;5027362;28;20447;-56
2022/12/02 14:04:17;;;;;;;1.65;1.10;;;;;;;;;;5010103;28;20057;-61
2022/12/02 14:06:44;;;;;;;4.95;3.53;;;;;;;;;;5008810;28;20103;-60
2022/12/02 14:09:10;;;;;;;1.42;1.00;;;;;;;;;;5011309;28;20045;-61
2022/12/02 14:11:37;;;;;;;3.33;2.63;;;;;;;;;;4995492;28;20045;-64
2022/12/02 14:14:04;;;;;;;3.63;2.10;;;;;;;;;;4997604;28;20037;-63
2022/12/02 14:16:30;;;;;;;3.35;2.45;;;;;;;;;;4997950;28;20491;-63
2022/12/02 14:18:57;;;;;;;0.75;0.75;;;;;;;;;;5018214;28;20045;-64
2022/12/02 14:21:24;;;;;;;4.03;2.70;;;;;;;;;;5016733;28;20055;-62
2022/12/02 14:23:50;;;;;;;0.52;0.32;;;;;;;;;;5016709;28;20709;-61
2022/12/02 14:26:17;;;;;;;1.13;1.02;;;;;;;;;;5016708;28;20037;-62
2022/12/02 14:28:44;;;;;;;1.10;0.70;;;;;;;;;;5037133;28;20041;-63
2022/12/02 14:31:10;;;;;;;0.82;0.75;;;;;;;;;;5026841;28;20041;-63
2022/12/02 14:33:37;;;;;;;0.95;0.68;;;;;;;;;;5041358;28;20080;-62
2022/12/02 14:36:04;;;;;;;0.43;0.30;;;;;;;;;;5055268;28;20055;-61
2022/12/02 14:38:30;;;;;;;0.68;0.68;;;;;;;;;;5068292;28;20032;-61
2022/12/02 14:40:57;;;;;;;1.70;1.33;;;;;;;;;;5049886;28;20044;-64
2022/12/02 14:43:24;;;;;;;0.63;0.52;;;;;;;;;;5033676;28;20120;-63
2022/12/02 14:46:10;;;;;;;0.40;0.40;;;;;;;;;;5013494;28;20049;-61
2022/12/02 14:48:37;;;;;;;1.48;1.13;;;;;;;;;;5025082;28;20052;-61
2022/12/02 14:51:23;;;;;;;0.47;0.30;;;;;;;;;;5026856;28;20033;-60
2022/12/02 14:53:50;;;;;;;1.33;1.17;;;;;;;;;;5039416;28;20037;-60
2022/12/02 14:56:16;;;;;;;0.90;0.50;;;;;;;;;;5040321;28;20071;-61
2022/12/02 14:58:43;;;;;;;2.95;2.15;;;;;;;;;;5040073;28;20069;-58
2022/12/02 15:01:10;;;;;;;0.63;0.60;;;;;;;;;;5039391;28;20041;-63